Time;durP1;ratioP1;P1;durP2;ratioP2;P2;SDS_P1;SDS_P2;PMS_P1;PMS_P2;Temp;Humidity;BMP_temperature;BMP_pressure;BME280_temperature;BME280_humidity;BME280_pressure;Samples;Min_cycle;Max_cycle;Signal;HPM_P1;HPM_P2
2023/12/11 00:00:48;;;;;;;7.68;1.90;;;;;;;9.91;100.00;98887.88;6121931;23;20025;-81
2023/12/11 00:03:15;;;;;;;7.15;2.33;;;;;;;9.94;100.00;98895.59;6122809;23;20079;-81
2023/12/11 00:05:42;;;;;;;3.45;2.08;;;;;;;9.99;100.00;98903.28;6117022;23;20105;-80
2023/12/11 00:08:09;;;;;;;12.07;2.28;;;;;;;9.90;100.00;98904.44;6093275;23;20025;-81
2023/12/11 00:10:37;;;;;;;11.52;2.22;;;;;;;9.88;100.00;98896.66;6093761;23;20026;-82
2023/12/11 00:13:04;;;;;;;5.72;1.70;;;;;;;9.84;100.00;98910.75;6095156;23;20653;-82
2023/12/11 00:15:31;;;;;;;8.40;2.17;;;;;;;9.76;100.00;98904.91;6070804;23;20029;-82
2023/12/11 00:18:01;;;;;;;13.32;2.45;;;;;;;9.66;100.00;98904.38;6069922;23;20031;-83
2023/12/11 00:20:29;;;;;;;10.63;1.85;;;;;;;9.60;100.00;98904.56;6096112;23;20033;-81
2023/12/11 00:23:01;;;;;;;6.97;2.25;;;;;;;9.58;100.00;98922.91;6120870;23;20660;-83
2023/12/11 00:25:32;;;;;;;8.98;1.98;;;;;;;9.64;100.00;98902.72;6099573;23;20705;-82
2023/12/11 00:28:00;;;;;;;6.88;1.73;;;;;;;9.60;100.00;98899.34;6096406;23;20022;-81
2023/12/11 00:30:30;;;;;;;11.00;2.67;;;;;;;9.67;100.00;98898.22;6097416;23;20046;-82
2023/12/11 00:32:57;;;;;;;10.98;2.10;;;;;;;9.71;100.00;98905.06;6098521;23;20022;-83
2023/12/11 00:35:33;;;;;;;11.07;2.65;;;;;;;9.75;100.00;98918.88;6078142;23;20064;-81
2023/12/11 00:38:04;;;;;;;6.43;2.17;;;;;;;9.68;100.00;98914.78;6099133;23;20118;-80
2023/12/11 00:40:31;;;;;;;15.77;3.90;;;;;;;9.67;100.00;98905.22;6101063;23;20105;-81
2023/12/11 00:43:00;;;;;;;13.30;2.67;;;;;;;9.62;100.00;98912.34;6097489;23;20029;-84
2023/12/11 00:45:26;;;;;;;4.55;2.75;;;;;;;9.66;100.00;98935.72;6097071;23;20022;-81
2023/12/11 00:47:53;;;;;;;14.65;2.38;;;;;;;9.63;100.00;98924.53;6070270;23;20101;-81
2023/12/11 00:50:20;;;;;;;6.38;2.85;;;;;;;9.69;100.00;98933.00;6094890;23;20400;-82
2023/12/11 00:52:47;;;;;;;8.25;1.70;;;;;;;9.63;100.00;98943.66;6068870;23;20026;-80
2023/12/11 00:55:13;;;;;;;10.07;2.15;;;;;;;9.62;100.00;98938.47;6071064;23;20082;-81
2023/12/11 00:57:42;;;;;;;13.73;2.38;;;;;;;9.56;100.00;98939.53;6074116;23;20144;-83
2023/12/11 01:00:12;;;;;;;9.32;2.83;;;;;;;9.58;100.00;98937.72;6072872;23;20045;-82
2023/12/11 01:02:42;;;;;;;9.85;2.85;;;;;;;9.55;100.00;98943.06;6098784;23;20092;-82
2023/12/11 01:05:12;;;;;;;7.75;2.58;;;;;;;9.52;100.00;98946.63;6101063;23;20037;-83
2023/12/11 01:07:43;;;;;;;12.27;2.20;;;;;;;9.54;100.00;98938.72;6097444;23;20032;-81
2023/12/11 01:10:10;;;;;;;11.90;3.78;;;;;;;9.52;100.00;98959.69;6095698;23;20026;-82
2023/12/11 01:12:41;;;;;;;6.20;1.90;;;;;;;9.52;100.00;98969.28;6072122;23;20028;-81
2023/12/11 01:15:08;;;;;;;11.52;2.40;;;;;;;9.51;100.00;98964.94;6073264;23;20022;-83
2023/12/11 01:17:37;;;;;;;13.63;3.05;;;;;;;9.47;100.00;98979.88;6098207;23;20105;-83
2023/12/11 01:20:04;;;;;;;9.48;2.53;;;;;;;9.39;100.00;98966.19;6098146;23;20018;-81
2023/12/11 01:22:31;;;;;;;15.38;2.75;;;;;;;9.41;100.00;98983.53;6098069;23;20030;-80
2023/12/11 01:25:01;;;;;;;15.25;2.83;;;;;;;9.48;100.00;98985.94;6097691;23;20026;-81
2023/12/11 01:27:30;;;;;;;11.18;2.30;;;;;;;9.52;100.00;98985.78;6097989;23;20033;-81
2023/12/11 01:29:57;;;;;;;12.98;2.88;;;;;;;9.62;100.00;98985.50;6098257;23;20025;-81
2023/12/11 01:32:24;;;;;;;9.63;3.60;;;;;;;9.60;100.00;98990.78;6097417;23;20398;-81
2023/12/11 01:34:53;;;;;;;10.98;2.33;;;;;;;9.64;100.00;98995.00;6118600;23;20053;-81
2023/12/11 01:37:19;;;;;;;10.48;1.92;;;;;;;9.67;100.00;99004.50;6096006;23;20404;-80
2023/12/11 01:39:46;;;;;;;23.13;3.10;;;;;;;9.63;100.00;99010.72;6070286;23;20022;-82
2023/12/11 01:42:14;;;;;;;10.48;2.20;;;;;;;9.67;100.00;99009.72;6099258;23;20014;-82
2023/12/11 01:44:44;;;;;;;13.98;2.63;;;;;;;9.73;100.00;99015.59;6098438;23;20022;-82
2023/12/11 01:47:11;;;;;;;12.30;2.92;;;;;;;9.77;100.00;99018.97;6099652;23;20033;-80
2023/12/11 01:49:41;;;;;;;12.10;3.17;;;;;;;9.74;100.00;99024.31;6074517;23;20022;-81
2023/12/11 01:52:17;;;;;;;11.45;3.08;;;;;;;9.76;100.00;99027.72;6099726;23;20026;-81
2023/12/11 01:54:53;;;;;;;14.68;3.05;;;;;;;9.72;100.00;99023.50;6126988;23;20137;-80
2023/12/11 01:57:21;;;;;;;13.00;3.05;;;;;;;9.77;100.00;99021.59;6098254;23;20022;-82
2023/12/11 01:59:48;;;;;;;14.48;2.60;;;;;;;9.72;100.00;99032.19;6074151;23;20032;-81
2023/12/11 02:02:15;;;;;;;13.90;2.28;;;;;;;9.69;100.00;99034.06;6099842;23;20133;-82
2023/12/11 02:04:45;;;;;;;10.15;3.25;;;;;;;9.67;100.00;99035.84;6102203;23;20048;-82
2023/12/11 02:07:14;;;;;;;12.40;2.45;;;;;;;9.68;100.00;99038.41;6128510;23;20014;-81
2023/12/11 02:09:43;;;;;;;15.93;3.80;;;;;;;9.62;100.00;99036.00;6105656;23;20150;-82
2023/12/11 02:12:09;;;;;;;10.65;2.70;;;;;;;9.66;100.00;99039.38;6105250;23;20057;-81
2023/12/11 02:14:36;;;;;;;11.02;4.07;;;;;;;9.68;100.00;99040.19;6127536;23;20320;-80
2023/12/11 02:17:03;;;;;;;16.52;3.22;;;;;;;9.68;100.00;99045.41;6125842;23;20021;-80
2023/12/11 02:19:31;;;;;;;10.00;3.47;;;;;;;9.64;100.00;99033.34;6128693;23;20021;-83
2023/12/11 02:21:58;;;;;;;11.48;2.65;;;;;;;9.68;100.00;99046.25;6130328;23;20028;-81
2023/12/11 02:24:34;;;;;;;10.15;4.25;;;;;;;9.63;100.00;99035.09;6105169;23;20048;-82
2023/12/11 02:27:04;;;;;;;15.80;3.40;;;;;;;9.67;100.00;99046.31;6129854;23;20021;-80
2023/12/11 02:29:36;;;;;;;15.20;2.97;;;;;;;9.66;100.00;99048.06;6128705;23;20068;-82
2023/12/11 02:32:04;;;;;;;8.57;4.45;;;;;;;9.64;100.00;99051.63;6104655;23;20032;-82
2023/12/11 02:34:30;;;;;;;16.75;3.10;;;;;;;9.62;100.00;99048.19;6107629;23;20023;-82
2023/12/11 02:36:57;;;;;;;17.85;4.95;;;;;;;9.63;100.00;99052.53;6123918;23;20022;-82
2023/12/11 02:39:27;;;;;;;13.82;3.90;;;;;;;9.59;100.00;99054.38;6107220;23;20036;-82
2023/12/11 02:41:59;;;;;;;14.18;3.17;;;;;;;9.56;100.00;99051.88;6132173;23;20026;-81
2023/12/11 02:44:28;;;;;;;13.32;2.22;;;;;;;9.59;100.00;99050.03;6108119;23;20562;-81
2023/12/11 02:46:55;;;;;;;20.27;3.47;;;;;;;9.61;100.00;99039.53;6130398;23;20708;-81
2023/12/11 02:49:22;;;;;;;13.25;3.05;;;;;;;9.66;100.00;99044.59;6160427;23;20669;-81
2023/12/11 02:51:51;;;;;;;14.50;4.20;;;;;;;9.66;100.00;99052.44;6110011;23;20021;-84
2023/12/11 02:54:18;;;;;;;13.75;3.38;;;;;;;9.67;100.00;99056.75;6133123;23;20025;-81
2023/12/11 02:56:47;;;;;;;24.45;4.05;;;;;;;9.62;100.00;99061.25;6108872;23;20025;-82
2023/12/11 02:59:16;;;;;;;16.20;3.47;;;;;;;9.47;100.00;99047.78;6110001;23;20108;-82
2023/12/11 03:01:46;;;;;;;18.08;4.55;;;;;;;9.45;100.00;99044.34;6133767;23;20026;-82
2023/12/11 03:04:13;;;;;;;21.83;3.33;;;;;;;9.38;100.00;99048.06;6109115;23;20048;-82
2023/12/11 03:06:41;;;;;;;18.08;3.45;;;;;;;9.31;100.00;99038.69;6134180;23;20873;-81
2023/12/11 03:09:08;;;;;;;17.00;3.85;;;;;;;9.31;100.00;99046.50;6137456;23;20021;-81
2023/12/11 03:11:37;;;;;;;17.13;4.05;;;;;;;9.37;100.00;99048.94;6112139;23;20222;-82
2023/12/11 03:14:06;;;;;;;13.85;3.90;;;;;;;9.36;100.00;99040.28;6133929;23;20044;-81
2023/12/11 03:16:33;;;;;;;12.77;4.00;;;;;;;9.38;100.00;99035.84;6110200;23;20100;-83
2023/12/11 03:19:02;;;;;;;19.25;3.67;;;;;;;9.43;100.00;99035.72;6134644;23;20017;-81
2023/12/11 03:21:29;;;;;;;17.40;3.40;;;;;;;9.46;100.00;99027.78;6111460;23;20045;-82
2023/12/11 03:23:55;;;;;;;17.45;3.95;;;;;;;9.50;100.00;99028.53;6131574;23;20040;-80
2023/12/11 03:26:22;;;;;;;10.50;2.47;;;;;;;9.49;100.00;99027.69;6132120;23;20027;-82
2023/12/11 03:28:58;;;;;;;15.40;3.67;;;;;;;9.49;100.00;99026.81;6135673;23;20056;-83
2023/12/11 03:31:27;;;;;;;13.38;3.00;;;;;;;9.48;100.00;99020.75;6159016;23;20451;-83
2023/12/11 03:33:57;;;;;;;10.43;3.53;;;;;;;9.43;100.00;99038.31;6111103;23;20026;-82
2023/12/11 03:36:26;;;;;;;6.80;2.85;;;;;;;9.43;100.00;99035.72;6105884;23;20048;-81
2023/12/11 03:38:58;;;;;;;14.52;3.83;;;;;;;9.37;100.00;99025.44;6110418;23;20760;-82
2023/12/11 03:41:28;;;;;;;14.27;3.95;;;;;;;9.32;100.00;99029.94;6135050;23;20031;-83
2023/12/11 03:43:55;;;;;;;16.65;5.78;;;;;;;9.29;100.00;99020.44;6112830;23;20041;-83
2023/12/11 03:46:22;;;;;;;15.40;6.00;;;;;;;9.25;100.00;99026.66;6136372;23;20017;-81
2023/12/11 03:48:49;;;;;;;19.08;4.78;;;;;;;9.20;100.00;99028.56;6136768;23;20418;-82
2023/12/11 03:51:16;;;;;;;20.08;4.40;;;;;;;9.19;100.00;99029.44;6113015;23;20086;-81
2023/12/11 03:53:51;;;;;;;22.13;4.75;;;;;;;9.19;100.00;99024.22;6110574;23;20103;-82
2023/12/11 03:56:18;;;;;;;17.73;4.40;;;;;;;9.18;100.00;99018.16;6115663;23;20455;-82
2023/12/11 03:58:47;;;;;;;19.10;4.07;;;;;;;9.16;100.00;99013.88;6112432;23;20029;-81
2023/12/11 04:01:14;;;;;;;18.35;4.57;;;;;;;9.14;100.00;99016.56;6161533;23;20006;-82
2023/12/11 04:03:40;;;;;;;16.35;4.60;;;;;;;9.09;100.00;99005.38;6137967;23;20021;-83
2023/12/11 04:06:08;;;;;;;14.13;4.03;;;;;;;9.08;100.00;99017.56;6136466;23;20017;-83
2023/12/11 04:08:41;;;;;;;16.30;5.00;;;;;;;9.09;100.00;99015.84;6137573;23;20048;-81
2023/12/11 04:11:09;;;;;;;;;;;;;;;9.08;100.00;99024.56;6138259;23;20021;-81
2023/12/11 04:13:38;;;;;;;16.42;4.63;;;;;;;9.01;100.00;99013.44;6136496;23;19948;-82
2023/12/11 04:16:10;;;;;;;22.02;5.00;;;;;;;9.03;100.00;99014.22;6135664;23;20017;-80
2023/12/11 04:18:37;;;;;;;14.77;3.65;;;;;;;9.10;100.00;99013.16;6113360;23;20443;-81
2023/12/11 04:21:14;;;;;;;13.90;4.85;;;;;;;9.09;100.00;99010.63;6137314;23;20040;-80
2023/12/11 04:23:43;;;;;;;19.33;5.45;;;;;;;9.07;100.00;99008.06;6138632;23;20036;-82
2023/12/11 04:26:09;;;;;;;20.73;4.18;;;;;;;9.10;100.00;99005.34;6114328;23;20147;-81
2023/12/11 04:28:36;;;;;;;16.83;4.40;;;;;;;9.09;100.00;99013.22;6138284;23;20017;-83
2023/12/11 04:31:06;;;;;;;24.38;5.70;;;;;;;9.08;100.00;99014.97;6088296;23;20033;-82
2023/12/11 04:33:37;;;;;;;28.80;5.55;;;;;;;9.06;100.00;99006.34;6111641;23;20021;-82
2023/12/11 04:36:09;;;;;;;21.58;4.68;;;;;;;9.08;100.00;99014.97;6113056;23;20018;-83
2023/12/11 04:38:43;;;;;;;18.70;4.68;;;;;;;9.05;100.00;99002.00;6157316;23;20029;-82
2023/12/11 04:41:11;;;;;;;;;;;;;;;9.02;100.00;99003.84;6136104;23;20131;-82
2023/12/11 04:43:45;;;;;;;17.73;4.60;;;;;;;9.05;100.00;98999.41;6112924;23;19917;-81
2023/12/11 04:46:18;;;;;;;14.68;4.55;;;;;;;9.04;100.00;99004.66;6136317;23;20017;-83
2023/12/11 04:48:45;;;;;;;29.65;5.47;;;;;;;9.05;100.00;98998.56;6135979;23;20029;-82
2023/12/11 04:51:12;;;;;;;20.23;5.18;;;;;;;9.02;100.00;99006.47;6135816;23;20025;-81
2023/12/11 04:53:39;;;;;;;20.73;4.97;;;;;;;9.02;100.00;98989.06;6159088;23;20093;-81
2023/12/11 04:56:17;;;;;;;17.92;4.20;;;;;;;9.06;100.00;98989.78;6159092;23;20021;-81
2023/12/11 04:58:44;;;;;;;17.80;5.57;;;;;;;9.07;100.00;98992.38;6112043;23;20045;-81
2023/12/11 05:01:13;;;;;;;12.25;4.50;;;;;;;9.14;100.00;98997.41;6133123;23;20060;-81
2023/12/11 05:03:40;;;;;;;19.42;4.75;;;;;;;9.14;100.00;99000.88;6134997;23;20025;-81
2023/12/11 05:06:08;;;;;;;28.48;5.78;;;;;;;9.17;100.00;98994.72;6128458;23;20026;-81
2023/12/11 05:08:35;;;;;;;24.88;5.75;;;;;;;9.18;100.00;98989.44;6098059;23;20018;-81
2023/12/11 05:11:02;;;;;;;16.13;4.20;;;;;;;9.17;100.00;98987.72;6120147;23;20676;-81
2023/12/11 05:13:31;;;;;;;18.92;4.15;;;;;;;9.17;100.00;98987.72;6096657;23;20136;-81
2023/12/11 05:16:02;;;;;;;18.23;4.63;;;;;;;9.14;100.00;98985.22;6145039;23;20351;-81
2023/12/11 05:18:29;;;;;;;16.30;3.63;;;;;;;9.12;100.00;98979.19;6121019;23;20039;-80
2023/12/11 05:20:55;;;;;;;16.55;4.30;;;;;;;9.07;100.00;98978.47;6119546;23;20134;-81
2023/12/11 05:23:21;;;;;;;17.17;4.38;;;;;;;9.12;100.00;98978.34;6094173;23;20120;-82
2023/12/11 05:25:59;;;;;;;16.58;5.57;;;;;;;9.05;100.00;98972.44;6119111;23;20025;-80
2023/12/11 05:28:26;;;;;;;18.13;6.40;;;;;;;9.01;100.00;98974.28;6095002;23;20386;-81
2023/12/11 05:30:52;;;;;;;22.40;4.97;;;;;;;9.06;100.00;98966.31;6095264;23;20029;-83
2023/12/11 05:33:19;;;;;;;25.35;4.32;;;;;;;9.05;100.00;98960.25;6096461;23;20509;-81
2023/12/11 05:35:45;;;;;;;22.55;5.40;;;;;;;9.06;100.00;98950.66;6097134;23;20029;-81
2023/12/11 05:38:15;;;;;;;19.05;5.30;;;;;;;9.07;100.00;98955.84;6097187;23;20513;-81
2023/12/11 05:40:41;;;;;;;15.90;4.80;;;;;;;9.07;100.00;98948.00;6093797;23;20025;-82
2023/12/11 05:43:08;;;;;;;16.92;3.88;;;;;;;9.07;100.00;98961.06;6097139;23;20056;-82
2023/12/11 05:45:35;;;;;;;15.55;4.63;;;;;;;9.11;100.00;98953.97;6097222;23;20040;-83
2023/12/11 05:48:01;;;;;;;12.88;4.10;;;;;;;9.13;100.00;98951.34;6096422;23;20112;-83
2023/12/11 05:50:28;;;;;;;19.40;4.55;;;;;;;9.13;100.00;98948.72;6096116;23;20553;-83
2023/12/11 05:52:54;;;;;;;14.90;3.70;;;;;;;9.14;100.00;98946.06;6096716;23;20060;-82
2023/12/11 05:55:27;;;;;;;19.33;4.40;;;;;;;9.15;100.00;98946.91;6122677;23;20025;-82
2023/12/11 05:57:54;;;;;;;21.75;3.63;;;;;;;9.13;100.00;98944.34;6120802;23;20013;-81
2023/12/11 06:00:21;;;;;;;22.15;6.75;;;;;;;9.16;100.00;98943.41;6120720;23;20099;-80
2023/12/11 06:02:50;;;;;;;15.68;3.97;;;;;;;9.18;100.00;98954.66;6095937;23;20026;-81
2023/12/11 06:05:17;;;;;;;29.80;5.40;;;;;;;9.20;100.00;98948.47;6098767;23;20029;-81
2023/12/11 06:07:43;;;;;;;16.95;4.43;;;;;;;9.18;100.00;98945.06;6120319;23;20024;-82
2023/12/11 06:10:10;;;;;;;15.63;4.28;;;;;;;9.14;100.00;98948.69;6123514;23;20049;-81
2023/12/11 06:12:37;;;;;;;18.88;3.70;;;;;;;9.07;100.00;98949.75;6099519;23;20399;-81
2023/12/11 06:15:24;;;;;;;17.27;4.10;;;;;;;8.96;100.00;98959.66;5124242;27;20413;-79
2023/12/11 06:17:51;;;;;;;25.48;5.75;;;;;;;8.87;100.00;98951.19;5088894;28;20071;-80
2023/12/11 06:20:18;;;;;;;17.60;4.32;;;;;;;8.80;100.00;98947.06;5096453;28;20066;-82
2023/12/11 06:22:47;;;;;;;20.77;5.30;;;;;;;8.73;100.00;98945.53;5124600;27;20055;-81
2023/12/11 06:25:14;;;;;;;12.98;3.70;;;;;;;8.71;100.00;98948.19;5074252;28;20050;-81
2023/12/11 06:27:44;;;;;;;26.13;6.60;;;;;;;8.73;100.00;98938.53;5087806;28;20062;-82
2023/12/11 06:30:11;;;;;;;18.70;3.78;;;;;;;8.67;100.00;98930.94;5085829;28;20051;-81
2023/12/11 06:32:37;;;;;;;130.70;23.00;;;;;;;8.74;100.00;98936.81;5087089;28;20108;-82
2023/12/11 06:35:05;;;;;;;118.35;19.42;;;;;;;8.73;100.00;98937.69;5082300;28;20040;-81
2023/12/11 06:37:31;;;;;;;15.82;3.90;;;;;;;8.69;100.00;98936.09;5096147;28;20048;-80
2023/12/11 06:39:58;;;;;;;19.63;4.57;;;;;;;8.67;100.00;98946.56;5096331;28;20199;-80
2023/12/11 06:42:24;;;;;;;26.50;6.10;;;;;;;8.56;100.00;98944.25;5080152;28;20688;-80
2023/12/11 06:44:53;;;;;;;27.80;7.20;;;;;;;8.40;100.00;98954.22;5108504;28;20045;-81
2023/12/11 06:47:20;;;;;;;14.07;3.92;;;;;;;8.31;100.00;98967.53;5102371;28;20059;-79
2023/12/11 06:49:46;;;;;;;19.48;4.78;;;;;;;8.26;100.00;98974.59;5093452;28;20044;-80
2023/12/11 06:52:14;;;;;;;17.45;3.58;;;;;;;8.16;100.00;98978.34;5084145;28;20055;-82
2023/12/11 06:54:40;;;;;;;15.18;3.88;;;;;;;8.06;100.00;98972.53;5097865;28;20028;-80
2023/12/11 06:57:07;;;;;;;16.67;3.33;;;;;;;8.09;100.00;98972.44;5081119;28;20129;-82
2023/12/11 06:59:33;;;;;;;19.17;3.05;;;;;;;8.09;100.00;98962.00;5082609;28;20605;-81
2023/12/11 07:02:02;;;;;;;19.00;3.50;;;;;;;8.09;100.00;98954.19;5102507;28;20060;-82
2023/12/11 07:04:28;;;;;;;25.38;4.28;;;;;;;8.08;100.00;98958.56;5099807;28;20039;-80
2023/12/11 07:06:55;;;;;;;13.23;3.95;;;;;;;8.07;100.00;98959.47;5081779;28;20507;-82
2023/12/11 07:09:22;;;;;;;14.93;3.22;;;;;;;8.09;100.00;98962.84;5097422;28;20071;-81
2023/12/11 07:11:48;;;;;;;14.38;4.18;;;;;;;8.14;100.00;98954.09;5085870;28;20070;-82
2023/12/11 07:14:16;;;;;;;15.50;3.30;;;;;;;8.17;100.00;98951.38;5091624;28;20056;-82
2023/12/11 07:16:43;;;;;;;15.50;5.05;;;;;;;8.18;100.00;98951.34;5085698;28;20044;-81
2023/12/11 07:19:09;;;;;;;21.05;4.57;;;;;;;8.21;100.00;98953.88;5090139;28;20814;-81
2023/12/11 07:21:36;;;;;;;12.90;2.92;;;;;;;8.26;100.00;98954.59;5091033;28;20105;-81
2023/12/11 07:24:03;;;;;;;10.32;3.80;;;;;;;8.33;100.00;98951.81;5094936;28;20083;-81
2023/12/11 07:26:31;;;;;;;15.48;3.53;;;;;;;8.37;100.00;98943.03;5074778;28;20059;-80
2023/12/11 07:28:56;;;;;;;11.57;3.03;;;;;;;8.41;100.00;98945.50;5081844;28;20051;-82
2023/12/11 07:31:23;;;;;;;15.57;3.95;;;;;;;8.45;100.00;98946.28;5072711;28;20068;-80
2023/12/11 07:33:49;;;;;;;24.40;5.45;;;;;;;8.48;100.00;98943.63;5090588;28;20075;-81
2023/12/11 07:36:17;;;;;;;19.17;3.10;;;;;;;8.52;100.00;98954.81;5076940;28;20055;-80
2023/12/11 07:38:46;;;;;;;13.32;2.70;;;;;;;8.52;100.00;98954.81;5089663;28;20040;-82
2023/12/11 07:41:20;;;;;;;15.98;3.42;;;;;;;8.53;100.00;98952.16;5108872;28;20048;-82
2023/12/11 07:43:58;;;;;;;48.38;8.70;;;;;;;8.56;100.00;98953.84;5077352;28;20044;-80
2023/12/11 07:46:26;;;;;;;12.75;3.92;;;;;;;8.56;100.00;98953.84;5069805;28;20051;-80
2023/12/11 07:48:53;;;;;;;10.32;3.13;;;;;;;8.58;100.00;98962.50;5084402;28;20131;-80
2023/12/11 07:51:23;;;;;;;13.77;3.70;;;;;;;8.57;100.00;98953.78;5079073;28;20059;-81
2023/12/11 07:53:50;;;;;;;10.30;2.72;;;;;;;8.59;100.00;98959.84;5073993;28;20493;-83
2023/12/11 07:56:21;;;;;;;18.60;4.70;;;;;;;8.63;100.00;98955.38;5087443;28;20646;-82
2023/12/11 07:58:48;;;;;;;11.35;3.28;;;;;;;8.66;100.00;98957.91;5070375;28;20051;-81
2023/12/11 08:01:23;;;;;;;31.13;6.63;;;;;;;8.64;100.00;98954.47;5075670;28;20048;-81
2023/12/11 08:03:52;;;;;;;80.80;9.95;;;;;;;8.65;100.00;98952.72;5084626;28;20064;-81
2023/12/11 08:06:20;;;;;;;22.80;4.55;;;;;;;8.59;100.00;98946.78;5074554;28;20058;-81
2023/12/11 08:08:48;;;;;;;9.30;2.92;;;;;;;8.60;100.00;98948.50;5072358;28;20050;-81
2023/12/11 08:11:20;;;;;;;15.73;4.03;;;;;;;8.59;100.00;98940.69;5073286;28;20051;-81
2023/12/11 08:13:47;;;;;;;9.07;2.42;;;;;;;8.61;100.00;98944.97;5093533;28;20128;-81
2023/12/11 08:16:17;;;;;;;137.63;17.42;;;;;;;8.64;100.00;98951.84;5092336;28;20068;-83
2023/12/11 08:18:48;;;;;;;38.00;5.82;;;;;;;8.67;100.00;98950.91;5072950;28;20041;-81
2023/12/11 08:21:16;;;;;;;7.20;3.15;;;;;;;8.66;100.00;98954.44;5085112;28;20044;-81
2023/12/11 08:23:44;;;;;;;14.10;3.45;;;;;;;8.64;100.00;98951.00;5088633;28;20050;-82
2023/12/11 08:26:18;;;;;;;14.75;3.30;;;;;;;8.63;100.00;98944.97;5072103;28;20074;-81
2023/12/11 08:28:44;;;;;;;11.30;2.85;;;;;;;8.68;100.00;98950.03;5060963;28;20047;-82
2023/12/11 08:31:11;;;;;;;74.53;9.23;;;;;;;8.69;100.00;98951.75;5088622;28;20411;-83
2023/12/11 08:33:39;;;;;;;29.45;4.05;;;;;;;8.67;100.00;98949.19;5069639;28;20040;-83
2023/12/11 08:36:08;;;;;;;8.45;3.13;;;;;;;8.72;100.00;98949.91;5076282;28;20076;-81
2023/12/11 08:38:36;;;;;;;24.30;3.97;;;;;;;8.72;100.00;98957.72;5069807;28;20059;-82
2023/12/11 08:41:03;;;;;;;180.60;22.50;;;;;;;8.77;100.00;98948.03;5094333;28;20052;-82
2023/12/11 08:43:29;;;;;;;13.80;3.10;;;;;;;8.82;100.00;98944.41;5077621;28;20048;-81
2023/12/11 08:45:56;;;;;;;93.95;14.80;;;;;;;8.88;100.00;98950.31;5075621;28;20062;-82
2023/12/11 08:48:23;;;;;;;9.07;2.95;;;;;;;8.88;100.00;98947.69;5093125;28;20082;-81
2023/12/11 08:50:52;;;;;;;9.43;3.08;;;;;;;8.97;100.00;98946.56;5079977;28;20056;-80
2023/12/11 08:53:20;;;;;;;10.48;3.08;;;;;;;8.98;100.00;98947.41;5076950;28;20052;-81
2023/12/11 08:55:51;;;;;;;10.68;2.60;;;;;;;9.04;100.00;98947.25;5075402;28;20045;-82
2023/12/11 08:58:18;;;;;;;6.38;2.88;;;;;;;9.11;100.00;98943.53;5073036;28;20048;-80
2023/12/11 09:00:44;;;;;;;13.48;4.03;;;;;;;9.17;100.00;98937.28;5093606;28;20339;-82
2023/12/11 09:03:11;;;;;;;9.15;3.40;;;;;;;9.23;100.00;98944.91;5079109;28;20044;-82
2023/12/11 09:05:38;;;;;;;121.40;16.42;;;;;;;9.29;100.00;98942.13;5090912;28;20123;-82
2023/12/11 09:08:05;;;;;;;20.35;2.63;;;;;;;9.23;100.00;98927.50;5072555;28;20132;-81
2023/12/11 09:10:32;;;;;;;4.72;2.30;;;;;;;9.15;100.00;98924.28;5076456;28;20146;-82
2023/12/11 09:13:01;;;;;;;16.65;3.10;;;;;;;9.13;100.00;98920.84;5093033;28;20056;-81
2023/12/11 09:15:28;;;;;;;16.23;3.55;;;;;;;9.05;100.00;98915.03;5080692;28;20036;-81
2023/12/11 09:17:55;;;;;;;8.00;2.13;;;;;;;9.05;100.00;98928.09;5073510;28;20090;-82
2023/12/11 09:20:21;;;;;;;21.23;4.45;;;;;;;9.02;100.00;98915.97;5076100;28;20131;-81
2023/12/11 09:22:48;;;;;;;9.30;2.40;;;;;;;9.08;100.00;98922.75;5075123;28;20036;-82
2023/12/11 09:25:16;;;;;;;13.35;2.85;;;;;;;9.04;100.00;98916.75;5071469;28;20656;-82
2023/12/11 09:27:43;;;;;;;9.48;3.20;;;;;;;9.07;100.00;98923.66;5088273;28;20058;-80
2023/12/11 09:30:10;;;;;;;12.48;3.28;;;;;;;9.07;100.00;98921.91;5068103;28;20101;-83
2023/12/11 09:32:37;;;;;;;9.82;2.42;;;;;;;9.10;100.00;98926.19;5079908;28;20067;-80
2023/12/11 09:35:06;;;;;;;12.23;2.50;;;;;;;9.04;100.00;98924.59;5070495;28;20044;-81
2023/12/11 09:37:32;;;;;;;19.67;4.50;;;;;;;9.10;100.00;98926.19;5066648;28;20060;-82
2023/12/11 09:39:59;;;;;;;10.00;2.90;;;;;;;9.03;100.00;98924.66;5090040;28;20040;-82
2023/12/11 09:42:27;;;;;;;7.10;2.78;;;;;;;9.05;100.00;98917.63;5071389;28;20048;-81
2023/12/11 09:44:55;;;;;;;8.45;3.10;;;;;;;9.05;100.00;98915.88;5083728;28;20099;-82
2023/12/11 09:47:31;;;;;;;8.90;3.13;;;;;;;9.04;100.00;98919.38;5088192;28;20670;-80
2023/12/11 09:49:58;;;;;;;10.27;2.50;;;;;;;8.98;100.00;98927.38;5094239;28;20060;-82
2023/12/11 09:52:24;;;;;;;12.63;2.83;;;;;;;8.91;100.00;98915.44;5073643;28;20067;-80
2023/12/11 09:54:51;;;;;;;13.93;3.00;;;;;;;8.89;100.00;98905.06;5078864;28;20048;-81
2023/12/11 09:57:18;;;;;;;12.82;2.85;;;;;;;8.87;100.00;98908.59;5072686;28;20052;-81
2023/12/11 09:59:44;;;;;;;13.40;3.53;;;;;;;8.81;100.00;98909.63;5084362;28;20068;-81
2023/12/11 10:02:18;;;;;;;13.35;3.88;;;;;;;8.79;100.00;98906.22;5085817;28;20052;-83
2023/12/11 10:05:11;;;;;;;17.17;3.83;;;;;;;8.76;100.00;98906.31;5062443;28;20064;-82
2023/12/11 10:07:42;;;;;;;39.03;6.40;;;;;;;8.72;100.00;98912.50;5084836;28;20054;-83
2023/12/11 10:10:31;;;;;;;13.43;3.75;;;;;;;8.64;100.00;98910.13;5072911;28;20047;-81
2023/12/11 10:12:58;;;;;;;7.93;3.67;;;;;;;8.58;100.00;98908.56;5065808;28;20123;-82
2023/12/11 10:15:29;;;;;;;10.55;3.42;;;;;;;8.56;100.00;98909.50;5079080;28;20040;-81
2023/12/11 10:18:13;;;;;;;13.10;4.18;;;;;;;8.58;100.00;98905.94;5071712;28;20464;-81
2023/12/11 10:20:41;;;;;;;;;;;;;;;8.59;100.00;98899.84;5082812;28;20047;-82
2023/12/11 10:23:15;;;;;;;11.60;4.50;;;;;;;8.56;100.00;98902.53;5082300;28;19924;-80
2023/12/11 10:25:44;;;;;;;6.65;2.50;;;;;;;8.58;100.00;98894.69;5079846;28;20095;-80
2023/12/11 10:28:14;;;;;;;8.65;2.55;;;;;;;8.55;100.00;98890.41;5072205;28;20319;-82
2023/12/11 10:30:59;;;;;;;11.18;2.83;;;;;;;8.53;100.00;98892.19;5055572;28;20040;-83
2023/12/11 10:33:30;;;;;;;13.15;3.38;;;;;;;8.49;100.00;98884.50;5072060;28;20051;-82
2023/12/11 10:36:12;;;;;;;7.07;2.38;;;;;;;8.47;100.00;98878.47;5070312;28;20056;-80
2023/12/11 10:38:43;;;;;;;13.32;2.95;;;;;;;8.46;100.00;98879.38;5072067;28;20056;-83
2023/12/11 10:41:26;;;;;;;8.27;2.45;;;;;;;8.41;100.00;98876.88;5058559;28;20117;-83
2023/12/11 10:43:53;;;;;;;7.45;2.47;;;;;;;8.43;100.00;98881.16;5073908;28;20049;-81
2023/12/11 10:46:19;;;;;;;20.58;7.05;;;;;;;8.46;100.00;98879.38;5070199;28;20467;-82
2023/12/11 10:48:46;;;;;;;6.72;2.15;;;;;;;8.47;100.00;98874.09;5052563;28;20392;-81
2023/12/11 10:51:14;;;;;;;4.78;2.08;;;;;;;8.48;100.00;98875.81;5089828;28;20066;-85
2023/12/11 10:53:41;;;;;;;9.80;2.03;;;;;;;8.51;100.00;98874.88;5071844;28;20098;-83
2023/12/11 10:56:08;;;;;;;5.43;2.15;;;;;;;8.55;100.00;98860.84;5070155;28;20075;-81
2023/12/11 10:58:37;;;;;;;3.92;1.70;;;;;;;8.63;100.00;98850.19;5087751;28;20044;-82
2023/12/11 11:01:12;;;;;;;10.20;2.50;;;;;;;8.70;100.00;98862.16;5087163;28;20077;-81
2023/12/11 11:03:39;;;;;;;3.78;1.35;;;;;;;8.71;100.00;98854.28;5073264;28;20051;-83
2023/12/11 11:06:08;;;;;;;2.83;1.42;;;;;;;8.75;100.00;98857.66;5069484;28;20070;-82
2023/12/11 11:08:58;;;;;;;4.05;1.25;;;;;;;8.79;100.00;98848.81;5073053;28;20036;-82
2023/12/11 11:11:37;;;;;;;1.50;1.13;;;;;;;8.84;100.00;98854.75;5070976;28;20052;-83
2023/12/11 11:14:42;;;;;;;5.60;1.17;;;;;;;8.90;100.00;98853.72;5070489;28;20056;-83
2023/12/11 11:17:09;;;;;;;2.33;0.88;;;;;;;8.96;100.00;98850.91;5084429;28;20083;-81
2023/12/11 11:19:36;;;;;;;2.05;1.08;;;;;;;8.98;100.00;98850.84;5072354;28;20048;-81
2023/12/11 11:22:03;;;;;;;3.42;1.30;;;;;;;9.03;100.00;98856.78;5094624;28;20038;-82
2023/12/11 11:24:39;;;;;;;5.30;1.00;;;;;;;9.06;100.00;98852.34;5095833;28;20036;-83
2023/12/11 11:27:39;;;;;;;2.88;1.10;;;;;;;9.05;100.00;98855.84;5074712;28;20048;-82
2023/12/11 11:30:07;;;;;;;2.08;0.90;;;;;;;9.09;100.00;98852.22;5064045;28;20048;-81
2023/12/11 11:32:55;;;;;;;3.97;0.90;;;;;;;9.06;100.00;98844.50;5071455;28;20435;-83
2023/12/11 11:35:46;;;;;;;1.23;0.50;;;;;;;9.11;100.00;98846.94;5079553;28;20063;-83